الصفحة الرئيسية
METAR-TAF:

METAR-TAF

مطار :

Glendale Municipal Airport

غلانديل, أريزونا, الولايات المتحدة

دائرة عرض: 33-31-38N, خط طول: 112-17-43W, ارتفاع: 325 متر

مراقبة الطقس الحالي

تاريخ ووقت الإصدار 1ساعة و 56 دقيقة قبل الساعة 02:47UTC
ريح 5 عقدة من الجنوب
درجة الحرارة 38°درجة مئوية
الرطوبة 21%
ضغط 1008 hPa
الرؤية: 16.1 كم
سماء صافية

METAR: KGEU 240247Z 18005KT 10SM SKC 38/12 A2978 RMK LAST

زمن: 21:43 (04:43 UTC)


TAF: مفقودة

أرصاد الطقس والتوقعات من أكثر من 4000 مطار (تقارير الطقس للمطار METAR والتنبؤ بالطقس بالمطارTAF).

المحطات المتاحة هي النقط الصفراء والحمراء على الخريطة.

حرك المؤشر فوق النقطة لمعرفة اسم المحطة.

ثم انقر لمعرفة أرصاد وتوقعات الطقس.

لتغيير الخارطة: اضغط على الأزرار الخضراء مع رمز الصليب الأسود للتكبير. على الزر الأخضر مع شرطة للتصغير، أو على الأسهم الخضراء للخرائط المجاورة.


METAR-TAF: